Time;durP1;ratioP1;P1;durP2;ratioP2;P2;SDS_P1;SDS_P2;PMS_P1;PMS_P2;Temp;Humidity;BMP_temperature;BMP_pressure;BME280_temperature;BME280_humidity;BME280_pressure;Samples;Min_cycle;Max_cycle;Signal;HPM_P1;HPM_P2
2022/01/23 00:00:20;;;;;;;;;;;7.30;68.90;;;;;;5057192;28;19904;-69
2022/01/23 00:02:46;;;;;;;;;;;7.30;68.90;;;;;;5072566;28;19908;-68
2022/01/23 00:05:12;;;;;;;;;;;7.30;68.90;;;;;;5056832;28;20348;-69
2022/01/23 00:07:40;;;;;;;;;;;7.30;68.90;;;;;;5072306;28;19912;-70
2022/01/23 00:10:10;;;;;;;;;;;7.30;68.90;;;;;;5056989;28;19904;-69
2022/01/23 00:12:44;;;;;;;;;;;7.30;68.90;;;;;;5056717;28;19905;-69
2022/01/23 00:17:54;;;;;;;;;;;7.30;68.90;;;;;;5056895;28;19970;-68
2022/01/23 00:20:20;;;;;;;;;;;7.30;68.80;;;;;;5078891;28;19998;-69
2022/01/23 00:22:50;;;;;;;;;;;7.30;68.80;;;;;;5096871;28;19911;-69
2022/01/23 00:30:45;;;;;;;;;;;7.20;68.60;;;;;;5097205;28;19912;-69
2022/01/23 00:33:11;;;;;;;;;;;7.20;68.60;;;;;;5096786;28;19908;-69
2022/01/23 00:35:38;;;;;;;;;;;7.20;68.60;;;;;;5078734;28;19908;-69
2022/01/23 00:38:04;;;;;;;;;;;7.20;68.60;;;;;;5096740;28;19981;-69
2022/01/23 00:40:31;;;;;;;;;;;7.20;68.70;;;;;;5078549;28;19998;-69
2022/01/23 00:42:58;;;;;;;;;;;7.10;68.70;;;;;;5096653;28;20290;-69
2022/01/23 00:45:35;;;;;;;;;;;7.10;68.70;;;;;;5096667;28;19904;-69
2022/01/23 00:48:06;;;;;;;;;;;7.10;68.70;;;;;;5096725;28;19957;-69
2022/01/23 00:50:33;;;;;;;;;;;7.10;68.80;;;;;;5096943;28;19911;-70
2022/01/23 00:52:59;;;;;;;;;;;7.10;68.80;;;;;;5096542;28;19911;-69
2022/01/23 00:55:25;;;;;;;;;;;7.10;68.80;;;;;;5077801;28;19912;-70
2022/01/23 00:57:51;;;;;;;;;;;7.10;68.80;;;;;;5077772;28;19951;-69
2022/01/23 01:00:16;;;;;;;;;;;7.10;68.80;;;;;;5096155;28;19911;-69
2022/01/23 01:02:42;;;;;;;;;;;7.10;68.80;;;;;;5078108;28;19916;-69
2022/01/23 01:05:08;;;;;;;;;;;7.10;68.90;;;;;;5078252;28;19904;-71
2022/01/23 01:07:34;;;;;;;;;;;7.10;68.90;;;;;;5095827;28;19904;-69
2022/01/23 01:10:08;;;;;;;;;;;7.10;68.90;;;;;;5078038;28;19904;-70
2022/01/23 01:12:43;;;;;;;;;;;7.10;68.90;;;;;;5078112;28;20466;-69
2022/01/23 01:31:37;;;;;;;;;;;7.10;69.10;;;;;;5095584;28;19950;-68
2022/01/23 01:36:36;;;;;;;;;;;7.20;69.20;;;;;;5095284;28;19928;-69
2022/01/23 01:39:03;;;;;;;;;;;7.20;69.20;;;;;;5095407;28;19910;-69
2022/01/23 01:41:28;;;;;;;;;;;7.20;69.20;;;;;;5077393;28;20251;-69
2022/01/23 01:43:56;;;;;;;;;;;7.20;69.10;;;;;;5095531;28;19953;-68
2022/01/23 01:46:22;;;;;;;;;;;7.20;69.10;;;;;;5077036;28;20007;-69
2022/01/23 01:48:47;;;;;;;;;;;7.20;69.10;;;;;;5095129;28;19969;-69
2022/01/23 01:51:16;;;;;;;;;;;7.20;69.00;;;;;;5077270;28;19904;-69
2022/01/23 01:53:48;;;;;;;;;;;7.20;69.00;;;;;;5095353;28;20391;-69
2022/01/23 01:56:14;;;;;;;;;;;7.20;69.00;;;;;;5077178;28;20010;-70
2022/01/23 02:09:22;;;;;;;;;;;7.20;69.10;;;;;;5095000;28;19911;-69
2022/01/23 02:12:13;;;;;;;;;;;7.20;69.20;;;;;;5094653;28;19946;-69
2022/01/23 02:17:18;;;;;;;;;;;7.20;69.20;;;;;;5094822;28;19916;-68
2022/01/23 02:22:54;;;;;;;;;;;7.30;69.30;;;;;;5094696;28;19949;-69
2022/01/23 02:52:57;;;;;;;;;;;7.40;69.10;;;;;;5094232;28;19911;-69
2022/01/23 02:55:27;;;;;;;;;;;7.40;69.10;;;;;;5075934;28;19969;-69
2022/01/23 02:58:01;;;;;;;;;;;7.40;69.10;;;;;;5093909;28;19904;-68
2022/01/23 03:00:37;;;;;;;;;;;7.40;69.20;;;;;;5094033;28;20289;-69
2022/01/23 03:03:12;;;;;;;;;;;7.40;69.20;;;;;;5094460;28;20212;-68
2022/01/23 03:05:40;;;;;;;;;;;7.50;69.20;;;;;;5075660;28;19910;-69
2022/01/23 03:10:40;;;;;;;;;;;7.50;69.10;;;;;;5094040;28;19911;-70
2022/01/23 03:24:07;;;;;;;;;;;7.50;69.20;;;;;;5093467;28;19925;-69
2022/01/23 03:24:46;;;;;;;;;;;7.60;69.20;;;;;;5093927;28;19910;-69
2022/01/23 03:30:02;;;;;;;;;;;7.60;69.20;;;;;;5094085;28;19908;-69
2022/01/23 03:32:38;;;;;;;;;;;7.60;69.20;;;;;;5094092;28;19904;-69
2022/01/23 03:35:05;;;;;;;;;;;7.60;69.10;;;;;;5093832;28;19908;-69
2022/01/23 03:37:31;;;;;;;;;;;7.60;69.10;;;;;;5093380;28;20356;-69
2022/01/23 03:39:56;;;;;;;;;;;7.70;69.10;;;;;;5093903;28;19911;-70
2022/01/23 03:42:24;;;;;;;;;;;7.70;69.00;;;;;;5075338;28;19904;-70
2022/01/23 03:45:07;;;;;;;;;;;7.70;68.90;;;;;;5075359;28;20002;-69
2022/01/23 03:47:38;;;;;;;;;;;7.70;68.90;;;;;;5075465;28;19947;-69
2022/01/23 03:50:05;;;;;;;;;;;7.70;68.90;;;;;;5093327;28;19911;-69
2022/01/23 03:52:31;;;;;;;;;;;7.70;69.00;;;;;;5093186;28;19904;-70
2022/01/23 03:54:57;;;;;;;;;;;7.70;68.90;;;;;;5074858;28;19916;-69
2022/01/23 03:57:22;;;;;;;;;;;7.70;68.90;;;;;;5093402;28;19908;-70
2022/01/23 03:59:48;;;;;;;;;;;7.70;68.90;;;;;;5093333;28;19957;-69
2022/01/23 04:02:14;;;;;;;;;;;7.70;68.90;;;;;;5075229;28;19904;-69
2022/01/23 04:04:41;;;;;;;;;;;7.70;68.90;;;;;;5093092;28;19904;-69
2022/01/23 04:07:12;;;;;;;;;;;7.80;69.00;;;;;;5093667;28;19904;-69
2022/01/23 04:09:39;;;;;;;;;;;7.80;69.00;;;;;;5075168;28;19915;-69
2022/01/23 04:12:06;;;;;;;;;;;7.70;68.80;;;;;;5093283;28;19912;-69
2022/01/23 04:14:34;;;;;;;;;;;7.80;68.90;;;;;;5092827;28;19908;-69
2022/01/23 04:33:30;;;;;;;;;;;7.80;68.90;;;;;;5096715;28;19983;-69
2022/01/23 05:00:32;;;;;;;;;;;7.90;69.00;;;;;;5096891;28;20337;-69
2022/01/23 05:03:42;;;;;;;;;;;7.90;69.00;;;;;;5096131;28;19911;-69
2022/01/23 05:05:43;;;;;;;;;;;7.90;69.00;;;;;;5095742;28;19904;-69
2022/01/23 05:08:17;;;;;;;;;;;7.90;69.00;;;;;;5096025;28;19973;-69
2022/01/23 05:10:42;;;;;;;;;;;7.90;68.90;;;;;;5096330;28;19912;-69
2022/01/23 05:13:08;;;;;;;;;;;7.90;68.90;;;;;;5096162;28;19908;-69
2022/01/23 05:15:34;;;;;;;;;;;7.90;68.90;;;;;;5095860;28;20254;-69
2022/01/23 05:18:00;;;;;;;;;;;7.90;68.90;;;;;;5077596;28;19907;-69
2022/01/23 05:20:28;;;;;;;;;;;8.00;69.00;;;;;;5077943;28;19968;-69
2022/01/23 05:23:00;;;;;;;;;;;7.90;68.80;;;;;;5096365;28;19911;-68
2022/01/23 05:25:29;;;;;;;;;;;7.90;68.60;;;;;;5095989;28;19911;-68
2022/01/23 05:27:54;;;;;;;;;;;7.90;68.60;;;;;;5095667;28;20351;-69
2022/01/23 05:30:21;;;;;;;;;;;7.90;68.60;;;;;;5077612;28;19949;-68
2022/01/23 05:32:49;;;;;;;;;;;7.90;68.60;;;;;;5095489;28;19912;-68
2022/01/23 05:35:20;;;;;;;;;;;7.90;68.60;;;;;;5077263;28;19911;-69
2022/01/23 05:37:46;;;;;;;;;;;7.90;68.70;;;;;;5095900;28;19915;-69
2022/01/23 05:40:14;;;;;;;;;;;7.90;68.80;;;;;;5077531;28;20389;-68
2022/01/23 05:42:43;;;;;;;;;;;7.90;68.70;;;;;;5077127;28;20050;-68
2022/01/23 05:45:11;;;;;;;;;;;7.90;68.80;;;;;;5077525;28;19915;-69
2022/01/23 05:47:37;;;;;;;;;;;7.90;68.70;;;;;;5077012;28;19904;-68
2022/01/23 05:50:06;;;;;;;;;;;7.90;68.60;;;;;;5077381;28;19927;-69
2022/01/23 05:52:32;;;;;;;;;;;7.90;68.60;;;;;;5077224;28;19908;-69
2022/01/23 05:55:00;;;;;;;;;;;7.90;68.60;;;;;;5095040;28;19914;-69
2022/01/23 05:57:26;;;;;;;;;;;7.90;68.60;;;;;;5076837;28;19957;-69
2022/01/23 05:59:52;;;;;;;;;;;7.90;68.60;;;;;;5077052;28;19999;-69
2022/01/23 06:02:18;;;;;;;;;;;7.90;68.60;;;;;;5095198;28;19910;-69
2022/01/23 06:04:43;;;;;;;;;;;7.90;68.60;;;;;;5095230;28;19911;-70
2022/01/23 06:07:09;;;;;;;;;;;7.90;68.60;;;;;;5095212;28;20386;-70
2022/01/23 06:09:39;;;;;;;;;;;7.90;68.60;;;;;;5095114;28;20370;-69
2022/01/23 06:12:10;;;;;;;;;;;7.90;68.50;;;;;;5076885;28;20343;-68
2022/01/23 06:14:36;;;;;;;;;;;7.80;68.40;;;;;;5094905;28;19908;-69
2022/01/23 06:17:01;;;;;;;;;;;7.80;68.40;;;;;;5076820;28;19958;-68
2022/01/23 06:19:27;;;;;;;;;;;7.90;68.60;;;;;;5094827;28;20328;-68
2022/01/23 06:21:53;;;;;;;;;;;7.80;68.50;;;;;;5076914;28;19905;-68
2022/01/23 06:24:26;;;;;;;;;;;7.90;68.50;;;;;;5094869;28;19910;-68
2022/01/23 06:26:53;;;;;;;;;;;7.80;68.50;;;;;;5095195;28;19904;-69
2022/01/23 06:29:20;;;;;;;;;;;7.80;68.60;;;;;;5094409;28;19905;-68
2022/01/23 06:31:49;;;;;;;;;;;7.80;68.60;;;;;;5094775;28;20301;-68
2022/01/23 06:34:17;;;;;;;;;;;7.90;68.70;;;;;;5076333;28;19918;-68
2022/01/23 06:36:43;;;;;;;;;;;7.90;68.60;;;;;;5094546;28;19909;-69
2022/01/23 06:39:10;;;;;;;;;;;7.90;68.70;;;;;;5094603;28;19995;-69
2022/01/23 06:41:36;;;;;;;;;;;7.90;68.60;;;;;;5076356;28;19904;-69
2022/01/23 06:44:04;;;;;;;;;;;7.90;68.50;;;;;;5076358;28;19904;-68
2022/01/23 06:46:31;;;;;;;;;;;7.90;68.50;;;;;;5076226;28;19911;-68
2022/01/23 06:48:57;;;;;;;;;;;7.90;68.60;;;;;;5076086;28;20294;-70
2022/01/23 06:51:23;;;;;;;;;;;7.90;68.50;;;;;;5094420;28;19970;-68
2022/01/23 06:53:48;;;;;;;;;;;7.90;68.60;;;;;;5075384;28;20359;-69
2022/01/23 06:56:14;;;;;;;;;;;7.90;68.60;;;;;;5094173;28;20275;-69
2022/01/23 06:58:40;;;;;;;;;;;7.90;68.50;;;;;;5094367;28;19904;-68
2022/01/23 07:01:09;;;;;;;;;;;8.00;68.50;;;;;;5075772;28;19913;-69
2022/01/23 07:03:35;;;;;;;;;;;8.00;68.50;;;;;;5076037;28;20303;-69
2022/01/23 07:06:01;;;;;;;;;;;8.00;68.50;;;;;;5094206;28;19989;-69
2022/01/23 07:08:26;;;;;;;;;;;8.00;68.50;;;;;;5093851;28;20263;-69
2022/01/23 07:10:52;;;;;;;;;;;8.00;68.50;;;;;;5094162;28;19911;-69
2022/01/23 07:13:17;;;;;;;;;;;8.00;68.50;;;;;;5075954;28;19908;-68
2022/01/23 07:15:43;;;;;;;;;;;8.00;68.50;;;;;;5075845;28;19908;-70
2022/01/23 07:18:09;;;;;;;;;;;8.00;68.50;;;;;;5093903;28;19955;-69
2022/01/23 07:20:35;;;;;;;;;;;8.00;68.50;;;;;;5093708;28;19912;-68
2022/01/23 07:23:01;;;;;;;;;;;8.00;68.50;;;;;;5093816;28;19904;-69
2022/01/23 07:25:26;;;;;;;;;;;8.00;68.40;;;;;;5075666;28;19999;-69
2022/01/23 07:27:55;;;;;;;;;;;8.10;68.50;;;;;;5093676;28;20305;-68
2022/01/23 07:30:38;;;;;;;;;;;8.10;68.40;;;;;;5093836;28;20271;-68
2022/01/23 07:33:04;;;;;;;;;;;8.10;68.40;;;;;;5075596;28;20155;-68
2022/01/23 07:35:30;;;;;;;;;;;8.10;68.40;;;;;;5093738;28;20376;-68
2022/01/23 07:37:56;;;;;;;;;;;8.10;68.40;;;;;;5093649;28;19964;-68
2022/01/23 07:40:22;;;;;;;;;;;8.10;69.20;;;;;;5093667;28;19908;-68
2022/01/23 07:42:47;;;;;;;;;;;8.10;68.40;;;;;;5093589;28;19908;-68
2022/01/23 07:45:16;;;;;;;;;;;8.10;68.30;;;;;;5093739;28;19904;-69
2022/01/23 07:47:42;;;;;;;;;;;8.10;68.30;;;;;;5093663;28;19979;-69
2022/01/23 07:50:08;;;;;;;;;;;8.10;68.40;;;;;;5075251;28;19904;-68
2022/01/23 07:52:35;;;;;;;;;;;8.10;68.40;;;;;;5093538;28;19911;-69
2022/01/23 07:55:05;;;;;;;;;;;8.20;68.50;;;;;;5075289;28;19978;-69
2022/01/23 07:57:31;;;;;;;;;;;8.10;68.40;;;;;;5093278;28;19932;-70
2022/01/23 07:59:57;;;;;;;;;;;8.10;68.20;;;;;;5075404;28;20331;-68
2022/01/23 08:02:23;;;;;;;;;;;8.10;68.20;;;;;;5075359;28;20369;-68
2022/01/23 08:04:49;;;;;;;;;;;8.20;68.10;;;;;;5093515;28;19904;-69
2022/01/23 08:09:56;;;;;;;;;;;8.10;68.10;;;;;;5097587;28;19908;-68
2022/01/23 08:12:29;;;;;;;;;;;8.10;68.10;;;;;;5079307;28;19905;-68
2022/01/23 08:14:54;;;;;;;;;;;8.10;68.10;;;;;;5079199;28;19912;-68
2022/01/23 08:17:24;;;;;;;;;;;8.10;68.20;;;;;;5097356;28;19918;-68
2022/01/23 08:20:01;;;;;;;;;;;8.10;68.30;;;;;;5097577;28;19920;-68
2022/01/23 08:22:28;;;;;;;;;;;8.20;68.30;;;;;;5097444;28;19904;-69
2022/01/23 08:24:57;;;;;;;;;;;8.10;68.20;;;;;;5079099;28;20324;-68
2022/01/23 08:27:23;;;;;;;;;;;8.10;68.10;;;;;;5078823;28;19911;-68
2022/01/23 08:29:49;;;;;;;;;;;8.20;68.20;;;;;;5078830;28;20289;-69
2022/01/23 08:32:15;;;;;;;;;;;8.10;68.10;;;;;;5078592;28;19947;-67
2022/01/23 08:34:41;;;;;;;;;;;8.10;68.00;;;;;;5097004;28;20010;-69
2022/01/23 08:37:07;;;;;;;;;;;8.10;67.90;;;;;;5097011;28;19908;-68
2022/01/23 08:39:35;;;;;;;;;;;8.10;68.00;;;;;;5078771;28;19904;-68
2022/01/23 08:42:12;;;;;;;;;;;8.10;67.90;;;;;;5096614;28;20418;-69
2022/01/23 08:44:38;;;;;;;;;;;8.10;68.00;;;;;;5078765;28;19989;-68
2022/01/23 08:47:04;;;;;;;;;;;8.10;68.10;;;;;;5096867;28;20248;-69
2022/01/23 08:49:30;;;;;;;;;;;8.10;68.20;;;;;;5078603;28;19927;-69
2022/01/23 08:51:57;;;;;;;;;;;8.20;68.30;;;;;;5078291;28;19939;-68
2022/01/23 08:54:23;;;;;;;;;;;8.20;68.40;;;;;;5078483;28;19961;-69
2022/01/23 08:56:49;;;;;;;;;;;8.20;68.30;;;;;;5078511;28;19915;-68
2022/01/23 08:59:15;;;;;;;;;;;8.30;68.30;;;;;;5096690;28;20266;-67
2022/01/23 09:01:40;;;;;;;;;;;8.30;68.20;;;;;;5096595;28;19904;-69
2022/01/23 09:04:07;;;;;;;;;;;8.30;68.20;;;;;;5078381;28;19910;-69
2022/01/23 09:06:35;;;;;;;;;;;8.30;68.90;;;;;;5096549;28;20011;-70
2022/01/23 09:09:04;;;;;;;;;;;8.30;68.10;;;;;;5096445;28;20356;-69
2022/01/23 09:16:31;;;;;;;;;;;8.30;67.90;;;;;;5096000;28;19912;-70
2022/01/23 09:18:56;;;;;;;;;;;8.30;67.90;;;;;;5077201;28;19932;-71
2022/01/23 09:21:22;;;;;;;;;;;8.30;68.00;;;;;;5095949;28;19999;-69
2022/01/23 09:23:47;;;;;;;;;;;8.40;68.00;;;;;;5095942;28;19911;-69
2022/01/23 09:26:16;;;;;;;;;;;8.40;68.10;;;;;;5096474;28;19904;-71
2022/01/23 09:28:44;;;;;;;;;;;8.40;68.00;;;;;;5096092;28;20041;-70
2022/01/23 09:31:12;;;;;;;;;;;8.40;67.90;;;;;;5077934;28;19953;-70
2022/01/23 09:33:38;;;;;;;;;;;8.50;68.00;;;;;;5096016;28;19908;-70
2022/01/23 09:36:04;;;;;;;;;;;8.50;68.00;;;;;;5077770;28;20322;-69
2022/01/23 09:38:29;;;;;;;;;;;8.50;68.00;;;;;;5077818;28;19910;-69
2022/01/23 09:40:57;;;;;;;;;;;8.50;67.90;;;;;;5095797;28;19911;-69
2022/01/23 09:43:23;;;;;;;;;;;8.50;67.80;;;;;;5095828;28;19911;-69
2022/01/23 09:45:51;;;;;;;;;;;8.50;67.70;;;;;;5096044;28;19904;-71
2022/01/23 09:48:17;;;;;;;;;;;8.50;67.60;;;;;;5095471;28;19939;-68
2022/01/23 09:50:45;;;;;;;;;;;8.60;67.90;;;;;;5095744;28;19908;-71
2022/01/23 09:53:11;;;;;;;;;;;8.60;67.90;;;;;;5095618;28;19904;-69
2022/01/23 09:55:37;;;;;;;;;;;8.60;67.80;;;;;;5095592;28;19955;-68
2022/01/23 09:58:03;;;;;;;;;;;8.60;67.70;;;;;;5095825;28;19927;-69
2022/01/23 10:00:30;;;;;;;;;;;8.60;67.60;;;;;;5095479;28;19939;-69
2022/01/23 10:02:57;;;;;;;;;;;8.60;68.40;;;;;;5077154;28;20332;-69
2022/01/23 10:05:22;;;;;;;;;;;8.60;67.60;;;;;;5077133;28;19908;-68
2022/01/23 10:07:48;;;;;;;;;;;8.60;67.60;;;;;;5076988;28;19904;-68
2022/01/23 10:10:19;;;;;;;;;;;8.60;67.70;;;;;;5077107;28;19908;-69
2022/01/23 10:12:50;;;;;;;;;;;8.60;67.70;;;;;;5094915;28;20281;-69
2022/01/23 10:15:16;;;;;;;;;;;8.70;67.80;;;;;;5095032;28;19908;-68
2022/01/23 10:17:42;;;;;;;;;;;8.70;67.90;;;;;;5076832;28;19948;-68
2022/01/23 10:20:09;;;;;;;;;;;8.80;67.90;;;;;;5076415;28;19978;-68
2022/01/23 10:22:36;;;;;;;;;;;8.80;67.80;;;;;;5076907;28;19908;-68
2022/01/23 10:25:24;;;;;;;;;;;8.80;67.90;;;;;;5095247;28;20336;-70
2022/01/23 10:27:50;;;;;;;;;;;8.90;67.80;;;;;;5086218;28;19911;-68
2022/01/23 10:30:17;;;;;;;;;;;8.90;67.80;;;;;;5094977;28;19912;-68
2022/01/23 10:32:55;;;;;;;;;;;9.00;67.90;;;;;;5076643;28;19904;-69
2022/01/23 10:35:20;;;;;;;;;;;9.00;67.90;;;;;;5094561;28;19965;-68
2022/01/23 10:37:46;;;;;;;;;;;9.10;67.80;;;;;;5076695;28;19912;-69
2022/01/23 10:40:22;;;;;;;;;;;9.10;67.70;;;;;;5076638;28;20263;-69
2022/01/23 10:50:49;;;;;;;;;;;9.20;67.40;;;;;;5094627;28;20278;-69
2022/01/23 10:53:14;;;;;;;;;;;9.20;67.60;;;;;;5094700;28;19995;-69
2022/01/23 10:55:40;;;;;;;;;;;9.20;67.80;;;;;;5076162;28;20328;-69
2022/01/23 10:58:20;;;;;;;;;;;9.30;67.90;;;;;;5094438;28;19904;-68
2022/01/23 11:00:45;;;;;;;;;;;9.40;68.00;;;;;;5094456;28;19959;-68
2022/01/23 11:03:17;;;;;;;;;;;9.40;68.00;;;;;;5076139;28;19908;-69
2022/01/23 11:05:44;;;;;;;;;;;9.50;67.90;;;;;;5076207;28;19943;-69
2022/01/23 11:08:20;;;;;;;;;;;9.50;67.70;;;;;;5075804;28;19991;-69
2022/01/23 11:10:56;;;;;;;;;;;9.50;67.60;;;;;;5094277;28;19905;-68
2022/01/23 11:19:16;;;;;;;;;;;9.60;67.30;;;;;;5093796;28;19973;-68
2022/01/23 11:21:42;;;;;;;;;;;9.60;67.10;;;;;;5094442;28;20306;-69
2022/01/23 11:24:08;;;;;;;;;;;9.60;66.70;;;;;;5094213;28;19904;-69
2022/01/23 11:26:36;;;;;;;;;;;9.60;66.60;;;;;;5093854;28;20263;-69
2022/01/23 11:29:18;;;;;;;;;;;9.50;66.30;;;;;;5093682;28;19904;-68
2022/01/23 11:31:44;;;;;;;;;;;9.50;66.20;;;;;;5075744;28;19986;-69
2022/01/23 11:34:12;;;;;;;;;;;9.50;66.30;;;;;;5093838;28;19995;-68
2022/01/23 11:36:38;;;;;;;;;;;9.50;66.40;;;;;;5075799;28;20312;-69
2022/01/23 11:39:22;;;;;;;;;;;9.50;66.30;;;;;;5093671;28;20006;-68
2022/01/23 11:56:24;;;;;;;;;;;9.80;66.90;;;;;;5100320;28;20443;-69
2022/01/23 11:59:09;;;;;;;;;;;9.80;66.50;;;;;;5100472;28;19943;-68
2022/01/23 12:01:34;;;;;;;;;;;9.90;66.60;;;;;;5100387;28;19916;-68
2022/01/23 12:04:06;;;;;;;;;;;9.90;66.50;;;;;;5082312;28;20248;-68
2022/01/23 12:06:36;;;;;;;;;;;9.90;66.50;;;;;;5082280;28;19999;-69
2022/01/23 12:09:11;;;;;;;;;;;10.00;66.50;;;;;;5082229;28;19949;-68
2022/01/23 12:11:58;;;;;;;;;;;10.00;66.30;;;;;;5100437;28;19908;-68
2022/01/23 12:16:50;;;;;;;;;;;10.10;66.10;;;;;;5100349;28;19912;-67
2022/01/23 12:19:21;;;;;;;;;;;10.10;66.10;;;;;;5100346;28;19966;-67
2022/01/23 12:21:52;;;;;;;;;;;10.10;66.20;;;;;;5081943;28;19904;-67
2022/01/23 12:24:18;;;;;;;;;;;10.10;66.00;;;;;;5100331;28;19953;-67
2022/01/23 12:26:45;;;;;;;;;;;10.10;65.90;;;;;;5082022;28;19949;-68
2022/01/23 12:29:12;;;;;;;;;;;10.10;65.70;;;;;;5099336;28;21201;-67
2022/01/23 12:31:38;;;;;;;;;;;10.10;65.50;;;;;;5081986;28;19949;-67
2022/01/23 12:34:04;;;;;;;;;;;10.10;65.20;;;;;;5099686;28;19908;-67
2022/01/23 12:36:35;;;;;;;;;;;10.10;65.10;;;;;;5100173;28;19908;-67
2022/01/23 12:39:06;;;;;;;;;;;10.10;65.30;;;;;;5100155;28;20343;-67
2022/01/23 12:41:39;;;;;;;;;;;10.10;65.30;;;;;;5081900;28;20315;-68
2022/01/23 12:44:04;;;;;;;;;;;10.10;65.60;;;;;;5081827;28;19912;-67
2022/01/23 12:46:40;;;;;;;;;;;10.10;65.90;;;;;;5099804;28;19904;-67
2022/01/23 12:49:20;;;;;;;;;;;10.20;66.10;;;;;;5081792;28;19904;-67
2022/01/23 12:52:09;;;;;;;;;;;10.20;65.90;;;;;;5079466;28;20423;-67
2022/01/23 12:54:46;;;;;;;;;;;10.20;65.50;;;;;;5088033;28;19955;-67
2022/01/23 12:57:14;;;;;;;;;;;10.20;65.50;;;;;;5096449;28;19908;-67
2022/01/23 12:59:42;;;;;;;;;;;10.30;65.80;;;;;;5078534;28;19905;-68
2022/01/23 13:02:12;;;;;;;;;;;10.30;66.00;;;;;;5078486;28;19912;-67
2022/01/23 13:04:40;;;;;;;;;;;10.40;66.10;;;;;;5078395;28;19912;-67
2022/01/23 13:07:12;;;;;;;;;;;10.40;66.20;;;;;;5078388;28;19944;-67
2022/01/23 13:12:14;;;;;;;;;;;10.50;66.80;;;;;;5096340;28;19955;-67
2022/01/23 13:17:42;;;;;;;;;;;10.50;65.70;;;;;;5096497;28;19916;-67
2022/01/23 13:31:39;;;;;;;;;;;10.30;64.80;;;;;;5095968;28;19931;-66
2022/01/23 13:34:19;;;;;;;;;;;10.30;64.90;;;;;;5077908;28;19998;-66
2022/01/23 13:36:52;;;;;;;;;;;10.30;64.90;;;;;;5078266;28;19919;-66
2022/01/23 13:39:22;;;;;;;;;;;10.20;64.80;;;;;;5095653;28;19904;-64
2022/01/23 13:49:30;;;;;;;;;;;10.10;64.80;;;;;;5095728;28;20006;-64
2022/01/23 13:51:23;;;;;;;;;;;10.10;65.10;;;;;;5084086;28;19904;-65
2022/01/23 14:04:17;;;;;;;;;;;9.90;64.60;;;;;;5095040;28;20339;-65
2022/01/23 14:06:43;;;;;;;;;;;9.90;64.70;;;;;;5095323;28;19904;-65
2022/01/23 14:09:10;;;;;;;;;;;9.90;64.80;;;;;;5095111;28;19911;-64
2022/01/23 14:11:36;;;;;;;;;;;9.90;64.70;;;;;;5095192;28;19904;-65
2022/01/23 14:14:12;;;;;;;;;;;9.80;64.70;;;;;;5095197;28;19908;-67
2022/01/23 14:16:41;;;;;;;;;;;9.90;64.80;;;;;;5095112;28;19915;-64
2022/01/23 14:19:14;;;;;;;;;;;9.80;64.70;;;;;;5076403;28;19920;-65
2022/01/23 14:21:40;;;;;;;;;;;9.90;64.80;;;;;;5076709;28;19904;-66
2022/01/23 14:24:09;;;;;;;;;;;9.90;65.00;;;;;;5076769;28;19912;-64
2022/01/23 14:26:35;;;;;;;;;;;9.90;65.20;;;;;;5094745;28;19908;-64
2022/01/23 14:29:05;;;;;;;;;;;9.90;65.30;;;;;;5094603;28;19911;-65
2022/01/23 14:31:37;;;;;;;;;;;10.00;65.40;;;;;;5094898;28;19908;-65
2022/01/23 14:34:05;;;;;;;;;;;10.00;65.50;;;;;;5076511;28;20374;-66
2022/01/23 14:36:35;;;;;;;;;;;10.00;65.30;;;;;;5076589;28;19908;-65
2022/01/23 14:39:03;;;;;;;;;;;10.00;65.10;;;;;;5076453;28;20251;-65
2022/01/23 14:41:31;;;;;;;;;;;10.00;65.00;;;;;;5094564;28;20340;-65
2022/01/23 14:43:57;;;;;;;;;;;10.00;65.10;;;;;;5094533;28;19908;-65
2022/01/23 14:46:23;;;;;;;;;;;10.00;65.00;;;;;;5094214;28;20344;-66
2022/01/23 14:48:50;;;;;;;;;;;9.90;64.90;;;;;;5094539;28;19904;-65
2022/01/23 14:51:22;;;;;;;;;;;9.90;64.70;;;;;;5094512;28;20010;-66
2022/01/23 14:53:51;;;;;;;;;;;9.90;64.70;;;;;;5075851;28;19963;-65
2022/01/23 14:56:17;;;;;;;;;;;9.90;64.80;;;;;;5076189;28;20003;-65
2022/01/23 14:58:43;;;;;;;;;;;9.80;64.90;;;;;;5076235;28;19911;-66
2022/01/23 15:01:11;;;;;;;;;;;9.80;65.80;;;;;;5094386;28;19904;-66
2022/01/23 15:03:38;;;;;;;;;;;9.80;65.00;;;;;;5076170;28;19911;-66
2022/01/23 15:06:04;;;;;;;;;;;9.80;65.00;;;;;;5094663;28;19913;-67
2022/01/23 15:08:31;;;;;;;;;;;9.80;65.10;;;;;;5094032;28;20397;-67
2022/01/23 15:10:58;;;;;;;;;;;9.80;65.10;;;;;;5094259;28;19991;-66
2022/01/23 15:13:24;;;;;;;;;;;9.80;65.20;;;;;;5075925;28;19912;-66
2022/01/23 15:15:51;;;;;;;;;;;9.80;65.20;;;;;;5075167;28;19952;-65
2022/01/23 15:18:17;;;;;;;;;;;9.80;65.30;;;;;;5093817;28;19920;-64
2022/01/23 15:20:42;;;;;;;;;;;9.70;65.20;;;;;;5094076;28;19957;-66
2022/01/23 15:23:09;;;;;;;;;;;9.70;65.20;;;;;;5093981;28;19914;-64
2022/01/23 15:25:35;;;;;;;;;;;9.70;65.20;;;;;;5093981;28;19931;-64
2022/01/23 15:28:01;;;;;;;;;;;9.70;65.30;;;;;;5075822;28;19904;-64
2022/01/23 15:30:30;;;;;;;;;;;9.70;65.10;;;;;;5093676;28;19955;-65
2022/01/23 15:32:56;;;;;;;;;;;9.60;65.10;;;;;;5075763;28;20382;-64
2022/01/23 15:35:23;;;;;;;;;;;9.60;65.10;;;;;;5093484;28;19908;-64
2022/01/23 15:37:52;;;;;;;;;;;9.60;65.00;;;;;;5075846;28;20315;-64
2022/01/23 15:40:19;;;;;;;;;;;9.60;65.00;;;;;;5093539;28;19904;-65
2022/01/23 15:42:46;;;;;;;;;;;9.60;65.10;;;;;;5075467;28;20025;-65
2022/01/23 15:45:11;;;;;;;;;;;9.50;65.20;;;;;;5093830;28;19907;-65
2022/01/23 15:47:39;;;;;;;;;;;9.50;65.30;;;;;;5075795;28;19927;-65
2022/01/23 15:50:06;;;;;;;;;;;9.50;65.40;;;;;;5093803;28;19908;-65
2022/01/23 15:52:34;;;;;;;;;;;9.50;65.50;;;;;;5093708;28;20041;-65
2022/01/23 15:55:00;;;;;;;;;;;9.50;65.40;;;;;;5093630;28;19922;-65
2022/01/23 15:57:26;;;;;;;;;;;9.50;65.30;;;;;;5093468;28;20003;-64
2022/01/23 15:59:52;;;;;;;;;;;9.40;65.30;;;;;;5093697;28;20373;-64
2022/01/23 16:02:17;;;;;;;;;;;9.40;65.20;;;;;;5075391;28;19907;-66
2022/01/23 16:04:43;;;;;;;;;;;9.40;65.20;;;;;;5093933;28;19953;-66
2022/01/23 16:07:16;;;;;;;;;;;9.40;65.20;;;;;;5075505;28;19904;-64
2022/01/23 16:09:48;;;;;;;;;;;9.40;65.30;;;;;;5075549;28;20351;-65
2022/01/23 16:12:15;;;;;;;;;;;9.30;65.30;;;;;;5075423;28;19911;-65
2022/01/23 16:14:43;;;;;;;;;;;9.30;65.40;;;;;;5093499;28;19933;-65
2022/01/23 16:17:09;;;;;;;;;;;9.30;65.40;;;;;;5075045;28;20003;-65
2022/01/23 16:19:35;;;;;;;;;;;9.30;65.40;;;;;;5071583;28;19994;-64
2022/01/23 16:22:00;;;;;;;;;;;9.30;65.50;;;;;;5073281;28;20348;-66
2022/01/23 16:24:27;;;;;;;;;;;9.30;65.50;;;;;;5073060;28;19905;-64
2022/01/23 16:26:54;;;;;;;;;;;9.30;65.60;;;;;;5074555;28;19904;-66
2022/01/23 16:29:21;;;;;;;;;;;9.30;65.60;;;;;;5058885;28;20244;-65
2022/01/23 16:31:51;;;;;;;;;;;9.30;65.60;;;;;;5076528;28;20351;-64
2022/01/23 16:34:17;;;;;;;;;;;9.30;65.70;;;;;;5084282;28;20403;-67
2022/01/23 16:36:45;;;;;;;;;;;9.30;65.70;;;;;;5076850;28;19909;-65
2022/01/23 16:39:14;;;;;;;;;;;9.20;65.70;;;;;;5076502;28;19939;-65
2022/01/23 16:41:40;;;;;;;;;;;9.20;65.80;;;;;;5058541;28;19904;-65
2022/01/23 16:44:06;;;;;;;;;;;9.20;65.80;;;;;;5058453;28;19994;-65
2022/01/23 16:46:32;;;;;;;;;;;9.20;65.80;;;;;;5076674;28;20359;-66
2022/01/23 16:48:59;;;;;;;;;;;9.20;65.90;;;;;;5076279;28;19905;-66
2022/01/23 16:51:25;;;;;;;;;;;9.20;66.00;;;;;;5076532;28;19908;-65
2022/01/23 16:53:50;;;;;;;;;;;9.20;66.00;;;;;;5058419;28;19909;-65
2022/01/23 16:56:17;;;;;;;;;;;9.20;66.00;;;;;;5076421;28;19909;-66
2022/01/23 16:58:43;;;;;;;;;;;9.20;66.10;;;;;;5076466;28;19911;-66
2022/01/23 17:01:09;;;;;;;;;;;9.20;66.10;;;;;;5076311;28;19911;-65
2022/01/23 17:03:35;;;;;;;;;;;9.20;66.10;;;;;;5058318;28;19999;-65
2022/01/23 17:06:03;;;;;;;;;;;9.20;66.10;;;;;;5075977;28;19904;-67
2022/01/23 17:08:29;;;;;;;;;;;9.20;66.10;;;;;;5075875;28;20391;-67
2022/01/23 17:10:54;;;;;;;;;;;9.20;66.10;;;;;;5058307;28;19909;-65
2022/01/23 17:13:20;;;;;;;;;;;9.20;66.00;;;;;;5058191;28;20411;-65
2022/01/23 17:15:46;;;;;;;;;;;9.20;66.00;;;;;;5035803;28;19916;-65
2022/01/23 17:18:12;;;;;;;;;;;9.20;65.90;;;;;;5020234;28;20349;-65
2022/01/23 17:20:39;;;;;;;;;;;9.20;65.80;;;;;;5038004;28;19951;-65
2022/01/23 17:23:05;;;;;;;;;;;9.10;65.70;;;;;;5055617;28;19932;-67
2022/01/23 17:25:31;;;;;;;;;;;9.10;65.60;;;;;;5055698;28;20357;-65
2022/01/23 17:27:57;;;;;;;;;;;9.10;65.60;;;;;;5055820;28;19960;-65
2022/01/23 17:30:23;;;;;;;;;;;9.10;65.70;;;;;;5037859;28;19905;-64
2022/01/23 17:32:49;;;;;;;;;;;9.00;65.70;;;;;;5037732;28;20029;-65
2022/01/23 17:35:15;;;;;;;;;;;9.00;65.70;;;;;;5055396;28;20059;-65
2022/01/23 17:37:41;;;;;;;;;;;9.00;65.60;;;;;;5037211;28;19909;-66
2022/01/23 17:40:09;;;;;;;;;;;9.00;65.70;;;;;;5037591;28;20238;-64
2022/01/23 17:42:35;;;;;;;;;;;8.90;65.70;;;;;;5071093;28;20419;-64
2022/01/23 17:45:01;;;;;;;;;;;8.90;65.60;;;;;;5055316;28;20376;-64
2022/01/23 17:50:15;;;;;;;;;;;8.80;65.60;;;;;;5055465;28;20016;-64
2022/01/23 17:52:41;;;;;;;;;;;8.80;65.60;;;;;;5055242;28;19908;-65
2022/01/23 17:55:07;;;;;;;;;;;8.80;65.70;;;;;;5055200;28;19912;-65